createdAt,value
2022-12-18T00:02:00.296Z,47.24
2022-12-18T00:04:01.788Z,47.38
2022-12-18T00:06:03.218Z,47.22
2022-12-18T00:08:04.545Z,47.62
2022-12-18T00:10:10.760Z,47.46
2022-12-18T00:14:22.872Z,48.04
2022-12-18T00:16:24.192Z,48.15
2022-12-18T00:18:25.515Z,48.20
2022-12-18T00:20:26.846Z,48.48
2022-12-18T00:22:28.141Z,48.55
2022-12-18T00:24:29.428Z,49.09
2022-12-18T00:26:30.731Z,49.36
2022-12-18T00:28:32.033Z,49.27
2022-12-18T00:30:33.324Z,49.32
2022-12-18T00:32:34.620Z,49.80
2022-12-18T00:34:35.944Z,49.69
2022-12-18T00:36:37.275Z,49.78
2022-12-18T00:38:38.576Z,50.02
2022-12-18T00:40:39.875Z,49.86
2022-12-18T00:42:56.493Z,50.14
2022-12-18T00:44:57.785Z,49.92
2022-12-18T00:46:59.078Z,50.42
2022-12-18T00:49:00.381Z,49.93
2022-12-18T00:51:01.667Z,49.79
2022-12-18T00:53:03.008Z,49.89
2022-12-18T00:55:06.481Z,49.46
2022-12-18T00:57:08.067Z,49.79
2022-12-18T00:59:09.451Z,49.56
2022-12-18T01:01:10.754Z,49.43
2022-12-18T01:03:12.159Z,49.65
2022-12-18T01:05:13.484Z,49.53
2022-12-18T01:07:14.815Z,49.58
2022-12-18T01:09:16.138Z,49.31
2022-12-18T01:11:17.482Z,49.48
2022-12-18T01:13:18.763Z,49.05
2022-12-18T01:15:20.051Z,49.38
2022-12-18T01:17:21.339Z,49.54
2022-12-18T01:19:22.627Z,49.50
2022-12-18T01:21:24.003Z,49.25
2022-12-18T01:23:28.119Z,49.25
2022-12-18T01:25:29.515Z,49.32
2022-12-18T01:27:30.813Z,50.04
2022-12-18T01:29:32.096Z,50.11
2022-12-18T01:31:33.513Z,50.00
2022-12-18T01:33:34.998Z,50.27
2022-12-18T01:35:39.599Z,50.66
2022-12-18T01:37:40.886Z,50.74
2022-12-18T01:39:42.216Z,51.24
2022-12-18T01:42:02.318Z,50.89
2022-12-18T01:44:03.620Z,51.16
2022-12-18T01:46:06.299Z,51.42
2022-12-18T01:48:07.619Z,51.63
2022-12-18T01:50:08.940Z,51.50
2022-12-18T01:52:11.038Z,51.42
2022-12-18T01:54:12.326Z,51.46
2022-12-18T01:56:14.173Z,51.87
2022-12-18T01:58:15.468Z,52.40
2022-12-18T02:00:16.789Z,52.15
2022-12-18T02:02:18.153Z,52.60
2022-12-18T02:04:19.508Z,52.25
2022-12-18T02:06:20.888Z,52.33
2022-12-18T02:08:22.171Z,51.91
2022-12-18T02:10:23.504Z,52.27
2022-12-18T02:12:24.804Z,51.96
2022-12-18T02:14:26.132Z,51.92
2022-12-18T02:16:27.440Z,51.77
2022-12-18T02:18:29.169Z,51.66
2022-12-18T02:20:30.490Z,51.57
2022-12-18T02:22:32.052Z,51.14
2022-12-18T02:24:33.352Z,51.33
2022-12-18T02:26:34.651Z,50.97
2022-12-18T02:28:36.036Z,51.17
2022-12-18T02:30:37.422Z,51.02
2022-12-18T02:32:38.744Z,50.97
2022-12-18T02:34:40.147Z,51.29
2022-12-18T02:36:41.433Z,51.58
2022-12-18T02:38:42.930Z,51.16
2022-12-18T02:40:44.332Z,51.31
2022-12-18T02:42:45.613Z,51.06
2022-12-18T02:44:47.042Z,50.87
2022-12-18T02:46:48.368Z,51.28
2022-12-18T02:48:49.688Z,51.98
2022-12-18T02:50:51.437Z,52.09
2022-12-18T02:52:52.731Z,52.09
2022-12-18T02:54:54.109Z,52.32
2022-12-18T02:56:56.311Z,52.09
2022-12-18T02:58:57.600Z,51.99
2022-12-18T03:00:58.920Z,52.47
2022-12-18T03:03:00.465Z,52.48
2022-12-18T03:05:01.843Z,52.83
2022-12-18T03:07:03.222Z,52.68
2022-12-18T03:09:04.552Z,52.79
2022-12-18T03:11:05.896Z,53.04
2022-12-18T03:13:07.193Z,53.15
2022-12-18T03:15:13.205Z,52.98
2022-12-18T03:17:17.399Z,53.06
2022-12-18T03:19:18.729Z,53.03
2022-12-18T03:21:20.369Z,52.94
2022-12-18T03:23:26.092Z,52.88
2022-12-18T03:25:27.809Z,52.78
2022-12-18T03:27:29.189Z,52.88
2022-12-18T03:29:30.476Z,52.61
2022-12-18T03:31:31.806Z,52.07
2022-12-18T03:33:33.132Z,52.27
2022-12-18T03:35:34.425Z,51.78
2022-12-18T03:37:35.735Z,52.10
2022-12-18T03:39:37.063Z,51.63
2022-12-18T03:41:38.413Z,51.71
2022-12-18T03:43:40.057Z,51.37
2022-12-18T03:45:41.627Z,51.65
2022-12-18T03:47:42.978Z,51.24
2022-12-18T03:49:44.252Z,51.33
2022-12-18T03:51:45.568Z,51.09
2022-12-18T03:53:46.868Z,51.03
2022-12-18T03:55:48.154Z,51.41
2022-12-18T03:57:49.494Z,51.23
2022-12-18T03:59:50.960Z,51.38
2022-12-18T04:01:52.377Z,51.36
2022-12-18T04:03:53.760Z,51.86
2022-12-18T04:05:55.088Z,51.84
2022-12-18T04:07:56.381Z,51.89
2022-12-18T04:09:57.694Z,52.42
2022-12-18T04:11:59.014Z,52.56
2022-12-18T04:14:01.952Z,52.80
2022-12-18T04:16:06.124Z,52.92
2022-12-18T04:18:07.443Z,53.14
2022-12-18T04:20:08.720Z,52.83
2022-12-18T04:22:10.152Z,53.06
2022-12-18T04:24:11.663Z,53.17
2022-12-18T04:26:12.984Z,53.02
2022-12-18T04:28:14.345Z,53.53
2022-12-18T04:30:15.655Z,53.22
2022-12-18T04:32:16.981Z,53.47
2022-12-18T04:34:18.304Z,53.28
2022-12-18T04:36:19.632Z,52.92
2022-12-18T04:38:20.958Z,53.12
2022-12-18T04:40:22.310Z,53.16
2022-12-18T04:42:23.601Z,52.77
2022-12-18T04:44:24.899Z,52.42
2022-12-18T04:46:26.250Z,52.56
2022-12-18T04:48:27.639Z,52.27
2022-12-18T04:50:28.923Z,52.14
2022-12-18T04:52:33.296Z,51.83
2022-12-18T04:54:34.588Z,51.66
2022-12-18T04:56:35.900Z,51.81
2022-12-18T04:58:37.256Z,51.52
2022-12-18T05:00:38.544Z,51.54
2022-12-18T05:02:39.929Z,51.68
2022-12-18T05:04:41.340Z,51.77
2022-12-18T05:06:42.653Z,51.52
2022-12-18T05:08:43.942Z,51.50
2022-12-18T05:10:45.278Z,51.94
2022-12-18T05:13:01.414Z,51.41
2022-12-18T05:15:05.853Z,51.97
2022-12-18T05:17:07.148Z,51.83
2022-12-18T05:19:08.472Z,51.75
2022-12-18T05:21:09.784Z,52.30
2022-12-18T05:23:11.070Z,51.95
2022-12-18T05:25:12.385Z,52.37
2022-12-18T05:27:13.752Z,53.00
2022-12-18T05:29:15.068Z,52.80
2022-12-18T05:31:16.388Z,53.02
2022-12-18T05:33:17.744Z,53.01
2022-12-18T05:35:19.072Z,53.47
2022-12-18T05:37:20.355Z,53.52
2022-12-18T05:39:21.635Z,53.48
2022-12-18T05:41:22.919Z,53.56
2022-12-18T05:43:24.217Z,53.74
2022-12-18T05:45:25.544Z,53.63
2022-12-18T05:47:26.854Z,53.48
2022-12-18T05:49:28.188Z,53.62
2022-12-18T05:51:29.493Z,53.56
2022-12-18T05:53:30.816Z,53.47
2022-12-18T05:55:32.140Z,53.32
2022-12-18T05:57:33.448Z,52.81
2022-12-18T05:59:34.896Z,52.86
2022-12-18T06:01:36.350Z,52.84
2022-12-18T06:03:37.827Z,52.75
2022-12-18T06:05:39.180Z,52.48
2022-12-18T06:07:40.487Z,52.42
2022-12-18T06:09:41.768Z,52.12
2022-12-18T06:11:43.051Z,51.85
2022-12-18T06:13:44.375Z,52.12
2022-12-18T06:15:45.692Z,51.91
2022-12-18T06:17:47.079Z,52.08
2022-12-18T06:19:48.369Z,52.04
2022-12-18T06:21:50.283Z,52.24
2022-12-18T06:23:51.569Z,52.02
2022-12-18T06:25:52.870Z,52.47
2022-12-18T06:27:54.195Z,52.66
2022-12-18T06:29:55.484Z,52.62
2022-12-18T06:31:56.878Z,52.94
2022-12-18T06:33:58.252Z,53.09
2022-12-18T06:36:01.264Z,52.97
2022-12-18T06:38:02.705Z,53.21
2022-12-18T06:40:04.050Z,53.37
2022-12-18T06:42:05.362Z,53.29
2022-12-18T06:44:07.646Z,53.38
2022-12-18T06:46:09.000Z,53.74
2022-12-18T06:48:10.408Z,53.55
2022-12-18T06:50:11.732Z,53.39
2022-12-18T06:52:13.013Z,52.97
2022-12-18T06:54:14.305Z,53.38
2022-12-18T06:56:15.605Z,53.33
2022-12-18T06:58:16.896Z,53.06
2022-12-18T07:00:19.126Z,53.26
2022-12-18T07:02:20.599Z,52.80
2022-12-18T07:04:21.995Z,52.81
2022-12-18T07:06:23.323Z,53.11
2022-12-18T07:08:24.873Z,53.03
2022-12-18T07:10:26.209Z,53.30
2022-12-18T07:12:27.496Z,53.39
2022-12-18T07:14:28.788Z,53.46
2022-12-18T07:16:31.287Z,53.71
2022-12-18T07:18:32.658Z,53.80
2022-12-18T07:20:33.956Z,53.73
2022-12-18T07:22:35.252Z,53.75
2022-12-18T07:24:36.673Z,53.62
2022-12-18T07:26:37.961Z,53.82
2022-12-18T07:28:39.288Z,53.46
2022-12-18T07:30:40.581Z,53.25
2022-12-18T07:32:43.518Z,53.54
2022-12-18T07:34:45.001Z,52.97
2022-12-18T07:36:46.343Z,52.92
2022-12-18T07:38:47.630Z,53.02
2022-12-18T07:40:48.962Z,52.75
2022-12-18T07:42:50.334Z,52.58
2022-12-18T07:44:51.656Z,52.19
2022-12-18T07:46:52.948Z,52.66
2022-12-18T07:48:54.245Z,52.37
2022-12-18T07:50:55.536Z,51.94
2022-12-18T07:52:56.856Z,51.87
2022-12-18T07:54:58.167Z,51.87
2022-12-18T07:56:59.451Z,52.15
2022-12-18T07:59:03.767Z,51.78
2022-12-18T08:01:05.453Z,51.80
2022-12-18T08:03:07.734Z,51.72
2022-12-18T08:05:09.032Z,51.95
2022-12-18T08:07:10.456Z,51.96
2022-12-18T08:09:11.746Z,52.39
2022-12-18T08:11:13.068Z,52.36
2022-12-18T08:13:14.389Z,52.51
2022-12-18T08:15:15.713Z,52.93
2022-12-18T08:17:17.033Z,53.09
2022-12-18T08:19:18.351Z,53.33
2022-12-18T08:21:20.759Z,53.22
2022-12-18T08:23:22.829Z,53.47
2022-12-18T08:25:24.215Z,53.83
2022-12-18T08:27:29.881Z,53.80
2022-12-18T08:29:32.851Z,53.84
2022-12-18T08:31:40.158Z,53.71
2022-12-18T08:33:41.828Z,54.29
2022-12-18T08:35:45.984Z,54.29
2022-12-18T08:37:47.553Z,54.33
2022-12-18T08:39:48.856Z,53.70
2022-12-18T08:42:10.566Z,53.13
2022-12-18T08:44:30.550Z,52.86
2022-12-18T08:46:31.881Z,52.80
2022-12-18T08:48:33.386Z,52.57
2022-12-18T08:50:34.668Z,52.20
2022-12-18T08:52:36.019Z,51.86
2022-12-18T08:54:37.328Z,51.77
2022-12-18T08:56:38.659Z,51.45
2022-12-18T08:58:40.009Z,50.92
2022-12-18T09:00:41.346Z,50.95
2022-12-18T09:02:42.722Z,50.52
2022-12-18T09:04:45.601Z,50.74
2022-12-18T09:06:50.980Z,50.37
2022-12-18T09:08:52.325Z,50.43
2022-12-18T09:10:56.371Z,50.10
2022-12-18T09:12:57.691Z,50.34
2022-12-18T09:14:59.020Z,50.14
2022-12-18T09:17:00.374Z,49.98
2022-12-18T09:19:02.040Z,49.90
2022-12-18T09:21:03.405Z,49.86
2022-12-18T09:23:04.756Z,49.70
2022-12-18T09:25:08.873Z,50.15
2022-12-18T09:27:10.394Z,49.88
2022-12-18T09:29:11.712Z,50.09
2022-12-18T09:31:16.138Z,50.27
2022-12-18T09:33:17.540Z,50.36
2022-12-18T09:35:18.845Z,50.21
2022-12-18T09:37:20.140Z,50.22
2022-12-18T09:39:24.178Z,50.52
2022-12-18T09:41:28.254Z,50.38
2022-12-18T09:43:29.590Z,50.37
2022-12-18T09:45:30.878Z,50.20
2022-12-18T09:47:32.200Z,50.42
2022-12-18T09:49:33.536Z,50.54
2022-12-18T09:51:34.820Z,50.39
2022-12-18T09:53:36.119Z,50.64
2022-12-18T09:55:38.090Z,50.42
2022-12-18T09:57:39.470Z,49.91
2022-12-18T09:59:40.867Z,50.56
2022-12-18T10:01:44.644Z,50.69
2022-12-18T10:03:49.941Z,50.79
2022-12-18T10:05:51.960Z,50.43
2022-12-18T10:07:53.252Z,50.52
2022-12-18T10:09:54.550Z,50.33
2022-12-18T10:11:56.009Z,50.51
2022-12-18T10:13:57.504Z,50.39
2022-12-18T10:15:58.863Z,50.19
2022-12-18T10:18:00.664Z,50.02
2022-12-18T10:20:02.005Z,39.11
2022-12-18T10:22:03.656Z,36.36
2022-12-18T10:24:04.989Z,37.28
2022-12-18T10:26:06.704Z,40.46
2022-12-18T10:28:07.999Z,38.79
2022-12-18T10:30:09.292Z,39.25
2022-12-18T10:32:10.583Z,39.66
2022-12-18T10:34:11.876Z,41.09
2022-12-18T10:36:13.230Z,42.13
2022-12-18T10:38:17.408Z,42.06
2022-12-18T10:40:22.532Z,43.18
2022-12-18T10:42:24.181Z,43.35
2022-12-18T10:44:28.289Z,43.94
2022-12-18T10:46:29.684Z,44.25
2022-12-18T10:48:31.024Z,44.62
2022-12-18T10:51:01.873Z,44.75
2022-12-18T10:52:53.748Z,45.12
2022-12-18T10:54:55.123Z,45.90
2022-12-18T10:56:56.421Z,45.60
2022-12-18T10:58:57.749Z,45.55
2022-12-18T11:00:59.073Z,45.52
2022-12-18T11:03:00.613Z,46.25
2022-12-18T11:05:02.061Z,45.79
2022-12-18T11:07:06.569Z,46.09
2022-12-18T11:09:13.191Z,46.38
2022-12-18T11:11:14.700Z,46.55
2022-12-18T11:13:15.996Z,47.18
2022-12-18T11:15:17.338Z,47.02
2022-12-18T11:17:26.627Z,47.04
2022-12-18T11:19:28.301Z,46.83
2022-12-18T11:21:29.579Z,47.35
2022-12-18T11:23:30.929Z,47.56
2022-12-18T11:25:34.619Z,48.14
2022-12-18T11:27:36.720Z,48.53
2022-12-18T11:29:43.242Z,48.01
2022-12-18T11:31:47.718Z,49.11
2022-12-18T11:34:19.782Z,49.14
2022-12-18T11:36:11.399Z,49.08
2022-12-18T11:38:12.743Z,49.12
2022-12-18T11:40:14.023Z,49.00
2022-12-18T11:42:15.312Z,49.29
2022-12-18T11:44:16.604Z,49.29
2022-12-18T11:46:20.053Z,49.27
2022-12-18T11:48:22.614Z,49.43
2022-12-18T11:50:24.055Z,49.33
2022-12-18T11:52:25.428Z,49.52
2022-12-18T11:54:26.788Z,49.80
2022-12-18T11:56:28.480Z,51.33
2022-12-18T11:58:31.734Z,49.35
2022-12-18T12:00:33.152Z,48.49
2022-12-18T12:02:34.629Z,48.75
2022-12-18T12:04:36.098Z,48.61
2022-12-18T12:06:37.518Z,47.85
2022-12-18T12:08:38.855Z,48.06
2022-12-18T12:10:40.153Z,48.29
2022-12-18T12:12:48.926Z,48.35
2022-12-18T12:14:50.523Z,48.32
2022-12-18T12:16:51.848Z,48.40
2022-12-18T12:18:53.519Z,48.90
2022-12-18T12:20:57.657Z,48.67
2022-12-18T12:22:58.952Z,48.41
2022-12-18T12:25:00.260Z,49.00
2022-12-18T12:27:01.561Z,48.93
2022-12-18T12:29:04.804Z,49.23
2022-12-18T12:31:06.181Z,48.74
2022-12-18T12:33:07.546Z,48.97
2022-12-18T12:35:09.976Z,49.89
2022-12-18T12:37:11.513Z,49.20
2022-12-18T12:39:13.693Z,48.81
2022-12-18T12:41:35.330Z,49.87
2022-12-18T12:43:42.327Z,50.38
2022-12-18T12:45:47.921Z,51.19
2022-12-18T12:47:49.325Z,50.39
2022-12-18T12:49:51.651Z,50.29
2022-12-18T12:51:53.240Z,50.74
2022-12-18T12:53:54.799Z,50.06
2022-12-18T12:55:56.328Z,49.76
2022-12-18T12:57:57.711Z,49.28
2022-12-18T13:00:02.138Z,48.84
2022-12-18T13:02:03.703Z,49.42
2022-12-18T13:04:05.610Z,49.11
2022-12-18T13:06:06.948Z,49.02
2022-12-18T13:08:08.384Z,48.00
2022-12-18T13:10:13.397Z,48.38
2022-12-18T13:12:37.265Z,49.16
2022-12-18T13:14:38.855Z,48.21
2022-12-18T13:16:40.145Z,47.86
2022-12-18T13:18:41.692Z,47.98
2022-12-18T13:20:47.902Z,48.26
2022-12-18T13:22:54.404Z,48.66
2022-12-18T13:24:55.684Z,48.44
2022-12-18T13:26:58.622Z,48.28
2022-12-18T13:29:00.218Z,47.94
2022-12-18T13:31:01.809Z,47.73
2022-12-18T13:33:03.099Z,48.00
2022-12-18T13:35:04.400Z,48.30
2022-12-18T13:37:05.707Z,47.38
2022-12-18T13:39:07.020Z,47.41
2022-12-18T13:41:08.776Z,47.85
2022-12-18T13:43:13.513Z,47.66
2022-12-18T13:45:17.544Z,50.79
2022-12-18T13:47:18.851Z,47.90
2022-12-18T13:49:20.229Z,48.12
2022-12-18T13:51:21.580Z,48.36
2022-12-18T13:53:23.117Z,48.46
2022-12-18T13:55:25.277Z,48.84
2022-12-18T13:57:26.894Z,49.04
2022-12-18T13:59:28.380Z,49.13
2022-12-18T14:01:29.751Z,49.53
2022-12-18T14:03:31.619Z,49.18
2022-12-18T14:05:33.241Z,49.19
2022-12-18T14:07:37.987Z,48.35
2022-12-18T14:09:44.574Z,49.80
2022-12-18T14:11:45.869Z,49.45
2022-12-18T14:13:47.336Z,49.84
2022-12-18T14:15:49.848Z,50.91
2022-12-18T14:17:51.226Z,51.08
2022-12-18T14:19:52.672Z,50.87
2022-12-18T14:21:56.865Z,51.00
2022-12-18T14:23:58.205Z,51.27
2022-12-18T14:26:05.186Z,51.09
2022-12-18T14:28:11.445Z,50.92
2022-12-18T14:30:12.774Z,50.82
2022-12-18T14:32:17.716Z,50.57
2022-12-18T14:34:20.306Z,50.45
2022-12-18T14:36:21.875Z,50.68
2022-12-18T14:38:26.284Z,50.27
2022-12-18T14:40:27.574Z,50.09
2022-12-18T14:42:29.266Z,49.91
2022-12-18T14:44:44.199Z,49.93
2022-12-18T14:46:51.808Z,49.97
2022-12-18T14:48:53.158Z,50.18
2022-12-18T14:50:54.447Z,50.84
2022-12-18T14:52:55.853Z,50.58
2022-12-18T14:54:57.182Z,51.22
2022-12-18T14:56:58.584Z,51.12
2022-12-18T14:58:59.958Z,51.35
2022-12-18T15:01:01.277Z,51.06
2022-12-18T15:03:02.757Z,51.18
2022-12-18T15:05:08.440Z,51.14
2022-12-18T15:07:17.535Z,51.51
2022-12-18T15:09:21.027Z,51.60
2022-12-18T15:11:22.352Z,51.20
2022-12-18T15:13:23.850Z,51.21
2022-12-18T15:15:25.143Z,51.06
2022-12-18T15:17:26.802Z,50.81
2022-12-18T15:19:28.283Z,51.21
2022-12-18T15:21:38.047Z,50.62
2022-12-18T15:23:39.626Z,51.07
2022-12-18T15:25:41.236Z,49.94
2022-12-18T15:27:42.519Z,50.29
2022-12-18T15:29:43.882Z,50.44
2022-12-18T15:31:46.460Z,50.36
2022-12-18T15:33:51.380Z,49.79
2022-12-18T15:35:52.737Z,49.92
2022-12-18T15:37:54.052Z,49.57
2022-12-18T15:39:55.521Z,49.17
2022-12-18T15:42:15.629Z,49.28
2022-12-18T15:44:16.926Z,49.57
2022-12-18T15:46:18.341Z,49.61
2022-12-18T15:48:19.792Z,49.64
2022-12-18T15:50:21.088Z,49.99
2022-12-18T15:52:29.848Z,50.34
2022-12-18T15:55:00.547Z,50.02
2022-12-18T15:57:20.585Z,50.37
2022-12-18T15:59:21.919Z,50.56
2022-12-18T16:01:23.320Z,50.39
2022-12-18T16:03:24.790Z,50.41
2022-12-18T16:05:27.576Z,50.06
2022-12-18T16:07:30.765Z,50.43
2022-12-18T16:09:33.124Z,50.43
2022-12-18T16:11:41.760Z,50.92
2022-12-18T16:13:43.465Z,51.26
2022-12-18T16:15:45.076Z,51.24
2022-12-18T16:17:46.516Z,50.90
2022-12-18T16:19:51.384Z,50.10
2022-12-18T16:21:52.712Z,38.78
2022-12-18T16:23:54.012Z,46.09
2022-12-18T16:25:58.215Z,44.89
2022-12-18T16:27:59.592Z,44.77
2022-12-18T16:30:01.015Z,44.70
2022-12-18T16:32:02.416Z,45.70
2022-12-18T16:34:03.715Z,46.16
2022-12-18T16:36:05.008Z,45.86
2022-12-18T16:38:06.573Z,45.36
2022-12-18T16:40:09.815Z,45.54
2022-12-18T16:44:51.992Z,45.84
2022-12-18T16:46:53.325Z,45.85
2022-12-18T16:48:54.678Z,46.42
2022-12-18T16:52:57.444Z,46.34
2022-12-18T16:55:14.135Z,46.09
2022-12-18T16:57:15.497Z,46.54
2022-12-18T16:59:16.878Z,46.61
2022-12-18T17:01:19.261Z,47.38
2022-12-18T17:03:20.814Z,46.93
2022-12-18T17:05:22.169Z,46.63
2022-12-18T17:07:26.168Z,47.03
2022-12-18T17:09:30.828Z,46.96
2022-12-18T17:11:32.257Z,47.52
2022-12-18T17:13:36.298Z,47.09
2022-12-18T17:15:37.706Z,48.17
2022-12-18T17:17:39.211Z,47.84
2022-12-18T17:19:40.585Z,48.77
2022-12-18T17:21:41.938Z,48.91
2022-12-18T17:23:44.086Z,49.06
2022-12-18T17:25:45.540Z,49.38
2022-12-18T17:27:46.887Z,49.23
2022-12-18T17:29:49.140Z,49.44
2022-12-18T17:31:50.688Z,49.67
2022-12-18T17:33:55.582Z,49.32
2022-12-18T17:35:56.948Z,50.20
2022-12-18T17:37:58.332Z,49.90
2022-12-18T17:39:59.620Z,50.42
2022-12-18T17:42:01.349Z,50.25
2022-12-18T17:44:02.696Z,50.35
2022-12-18T17:46:04.009Z,50.31
2022-12-18T17:48:05.633Z,50.46
2022-12-18T17:50:06.994Z,50.63
2022-12-18T17:52:08.352Z,50.35
2022-12-18T17:54:12.433Z,50.04
2022-12-18T17:56:13.773Z,50.81
2022-12-18T17:58:15.152Z,50.86
2022-12-18T18:00:19.232Z,50.63
2022-12-18T18:02:23.602Z,50.28
2022-12-18T18:04:25.151Z,49.59
2022-12-18T18:06:26.552Z,49.52
2022-12-18T18:08:27.845Z,49.07
2022-12-18T18:10:29.198Z,49.24
2022-12-18T18:12:51.225Z,48.52
2022-12-18T18:14:52.513Z,48.43
2022-12-18T18:16:57.361Z,48.29
2022-12-18T18:19:08.032Z,48.57
2022-12-18T18:21:09.348Z,48.27
2022-12-18T18:23:11.440Z,48.44
2022-12-18T18:25:12.884Z,48.10
2022-12-18T18:27:15.104Z,47.94
2022-12-18T18:29:16.435Z,48.36
2022-12-18T18:31:18.531Z,48.21
2022-12-18T18:33:19.878Z,48.08
2022-12-18T18:35:52.236Z,48.28
2022-12-18T18:37:45.568Z,48.52
2022-12-18T18:39:46.870Z,50.02
2022-12-18T18:41:51.185Z,49.12
2022-12-18T18:43:52.509Z,48.66
2022-12-18T18:45:53.869Z,48.97
2022-12-18T18:47:55.245Z,48.60
2022-12-18T18:49:56.677Z,49.37
2022-12-18T18:52:01.952Z,49.26
2022-12-18T18:54:03.266Z,49.16
2022-12-18T18:56:50.253Z,48.74
2022-12-18T18:58:25.936Z,48.82
2022-12-18T19:00:36.232Z,48.96
2022-12-18T19:02:37.906Z,49.14
2022-12-18T19:04:44.038Z,49.70
2022-12-18T19:06:49.040Z,49.56
2022-12-18T19:08:50.971Z,49.77
2022-12-18T19:10:57.539Z,49.43
2022-12-18T19:13:17.760Z,49.47
2022-12-18T19:15:19.067Z,49.49
2022-12-18T19:17:23.755Z,49.80
2022-12-18T19:19:29.434Z,49.53
2022-12-18T19:21:34.235Z,49.27
2022-12-18T19:23:36.088Z,49.61
2022-12-18T19:25:40.547Z,49.84
2022-12-18T19:27:45.953Z,49.19
2022-12-18T19:29:47.285Z,49.09
2022-12-18T19:31:48.677Z,49.28
2022-12-18T19:33:50.065Z,49.32
2022-12-18T19:35:51.410Z,49.12
2022-12-18T19:37:52.740Z,48.83
2022-12-18T19:39:55.368Z,49.00
2022-12-18T19:41:56.896Z,48.89
2022-12-18T19:43:58.512Z,49.24
2022-12-18T19:45:59.897Z,49.05
2022-12-18T19:48:04.465Z,49.04
2022-12-18T19:50:08.711Z,48.97
2022-12-18T19:52:10.113Z,47.79
2022-12-18T19:54:17.172Z,48.76
2022-12-18T19:56:18.903Z,48.77
2022-12-18T19:58:20.234Z,48.73
2022-12-18T20:00:24.243Z,48.67
2022-12-18T20:02:25.890Z,49.20
2022-12-18T20:04:33.135Z,49.16
2022-12-18T20:06:34.547Z,49.28
2022-12-18T20:08:35.893Z,48.79
2022-12-18T20:10:37.183Z,48.82
2022-12-18T20:12:38.482Z,48.96
2022-12-18T20:14:39.814Z,49.23
2022-12-18T20:16:41.361Z,49.44
2022-12-18T20:18:42.756Z,49.25
2022-12-18T20:20:44.042Z,49.46
2022-12-18T20:22:45.603Z,49.34
2022-12-18T20:24:46.891Z,49.91
2022-12-18T20:26:50.864Z,49.61
2022-12-18T20:28:55.242Z,50.05
2022-12-18T20:30:56.533Z,50.20
2022-12-18T20:32:57.895Z,51.03
2022-12-18T20:34:59.259Z,50.89
2022-12-18T20:37:10.188Z,49.96
2022-12-18T20:39:13.514Z,50.99
2022-12-18T20:41:15.824Z,50.81
2022-12-18T20:43:17.585Z,50.29
2022-12-18T20:45:21.656Z,49.92
2022-12-18T20:47:23.033Z,49.73
2022-12-18T20:49:24.504Z,49.74
2022-12-18T20:51:27.994Z,49.10
2022-12-18T20:53:38.696Z,49.41
2022-12-18T20:55:43.238Z,48.70
2022-12-18T20:57:48.217Z,48.57
2022-12-18T20:59:49.515Z,48.64
2022-12-18T21:01:52.203Z,48.40
2022-12-18T21:03:53.691Z,48.94
2022-12-18T21:05:54.994Z,48.46
2022-12-18T21:07:56.280Z,48.70
2022-12-18T21:09:57.614Z,48.14
2022-12-18T21:12:17.700Z,48.47
2022-12-18T21:14:19.339Z,47.82
2022-12-18T21:16:20.667Z,47.57
2022-12-18T21:18:22.005Z,47.78
2022-12-18T21:20:23.426Z,48.08
2022-12-18T21:22:25.048Z,47.77
2022-12-18T21:24:26.402Z,48.03
2022-12-18T21:26:31.116Z,47.79
2022-12-18T21:28:35.520Z,47.93
2022-12-18T21:30:37.108Z,48.12
2022-12-18T21:32:38.507Z,47.67
2022-12-18T21:34:43.374Z,48.14
2022-12-18T21:36:51.816Z,48.45
2022-12-18T21:38:53.141Z,48.29
2022-12-18T21:40:55.827Z,48.27
2022-12-18T21:43:17.828Z,48.54
2022-12-18T21:45:19.316Z,48.71
2022-12-18T21:47:22.413Z,48.38
2022-12-18T21:49:24.508Z,48.98
2022-12-18T21:51:25.792Z,48.66
2022-12-18T21:53:27.080Z,49.10
2022-12-18T21:55:31.056Z,48.98
2022-12-18T21:57:32.336Z,48.73
2022-12-18T21:59:34.044Z,48.46
2022-12-18T22:01:37.779Z,48.38
2022-12-18T22:03:39.357Z,48.83
2022-12-18T22:05:40.751Z,48.76
2022-12-18T22:07:42.035Z,48.98
2022-12-18T22:09:43.487Z,48.70
2022-12-18T22:11:44.830Z,49.15
2022-12-18T22:13:46.127Z,49.09
2022-12-18T22:15:47.533Z,49.43
2022-12-18T22:17:48.858Z,49.40
2022-12-18T22:19:50.150Z,49.12
2022-12-18T22:21:51.634Z,49.21
2022-12-18T22:23:54.116Z,49.15
2022-12-18T22:25:55.439Z,49.43
2022-12-18T22:28:15.275Z,49.33
2022-12-18T22:30:17.451Z,49.04
2022-12-18T22:32:30.865Z,48.62
2022-12-18T22:34:36.424Z,48.98
2022-12-18T22:36:38.067Z,38.21
2022-12-18T22:38:39.349Z,34.97
2022-12-18T22:40:40.641Z,41.50
2022-12-18T22:42:42.103Z,40.39
2022-12-18T22:44:43.427Z,40.92
2022-12-18T22:46:44.928Z,41.44
2022-12-18T22:48:50.193Z,41.91
2022-12-18T22:50:51.776Z,42.53
2022-12-18T22:52:58.061Z,43.55
2022-12-18T22:54:59.390Z,43.75
2022-12-18T22:57:00.699Z,44.32
2022-12-18T22:59:01.991Z,44.84
2022-12-18T23:01:03.333Z,45.14
2022-12-18T23:03:04.959Z,45.38
2022-12-18T23:05:08.605Z,45.67
2022-12-18T23:07:09.930Z,45.75
2022-12-18T23:09:12.740Z,45.73
2022-12-18T23:11:14.136Z,45.79
2022-12-18T23:13:17.356Z,46.56
2022-12-18T23:15:18.909Z,46.33
2022-12-18T23:17:24.886Z,46.91
2022-12-18T23:19:26.275Z,47.21
2022-12-18T23:21:27.587Z,46.98
2022-12-18T23:23:30.351Z,47.67
2022-12-18T23:25:31.652Z,47.52
2022-12-18T23:27:32.965Z,47.84
2022-12-18T23:29:34.252Z,47.78
2022-12-18T23:31:35.660Z,47.78
2022-12-18T23:33:36.982Z,47.86
2022-12-18T23:35:38.590Z,48.10
2022-12-18T23:37:58.680Z,48.36
2022-12-18T23:40:00.871Z,48.71
2022-12-18T23:42:02.178Z,48.99
2022-12-18T23:44:03.500Z,49.45
2022-12-18T23:46:04.867Z,49.33
2022-12-18T23:48:06.227Z,49.53
2022-12-18T23:50:07.621Z,49.66
2022-12-18T23:52:09.308Z,50.01
2022-12-18T23:54:10.644Z,49.87
2022-12-18T23:56:11.986Z,50.36
2022-12-18T23:58:13.293Z,50.30
